createdAt,value
2018-08-16T00:00:58.385Z,18.30
2018-08-16T00:03:28.797Z,18.30
2018-08-16T00:05:59.151Z,18.20
2018-08-16T00:08:29.420Z,18.20
2018-08-16T00:10:59.764Z,18.20
2018-08-16T00:13:30.054Z,18.20
2018-08-16T00:16:00.411Z,18.30
2018-08-16T00:18:30.741Z,18.30
2018-08-16T00:21:01.028Z,18.20
2018-08-16T00:23:31.391Z,18.00
2018-08-16T00:26:01.742Z,17.90
2018-08-16T00:28:32.144Z,17.80
2018-08-16T00:31:02.545Z,17.80
2018-08-16T00:33:32.875Z,17.90
2018-08-16T00:36:03.614Z,17.90
2018-08-16T00:38:33.965Z,17.80
2018-08-16T00:41:04.288Z,17.60
2018-08-16T00:43:34.685Z,17.60
2018-08-16T00:46:05.016Z,17.50
2018-08-16T00:48:35.368Z,17.50
2018-08-16T00:51:05.758Z,17.50
2018-08-16T00:53:36.105Z,17.40
2018-08-16T00:56:06.507Z,17.40
2018-08-16T00:58:36.914Z,17.30
2018-08-16T01:01:07.280Z,17.40
2018-08-16T01:03:37.593Z,17.50
2018-08-16T01:06:07.926Z,17.40
2018-08-16T01:08:38.250Z,17.40
2018-08-16T01:11:08.696Z,17.30
2018-08-16T01:13:39.041Z,17.20
2018-08-16T01:16:09.356Z,17.10
2018-08-16T01:18:39.644Z,17.00
2018-08-16T01:21:10.978Z,16.90
2018-08-16T01:23:41.340Z,16.80
2018-08-16T01:26:11.700Z,16.70
2018-08-16T01:28:41.968Z,16.50
2018-08-16T01:31:12.333Z,16.50
2018-08-16T01:33:42.685Z,16.50
2018-08-16T01:36:12.976Z,16.50
2018-08-16T01:38:43.281Z,16.50
2018-08-16T01:41:13.589Z,16.50
2018-08-16T01:43:44.013Z,16.40
2018-08-16T01:46:14.340Z,16.40
2018-08-16T01:48:44.667Z,16.30
2018-08-16T01:51:14.951Z,16.10
2018-08-16T01:53:45.313Z,16.10
2018-08-16T01:56:15.697Z,16.10
2018-08-16T01:58:45.976Z,16.10
2018-08-16T02:01:16.384Z,16.10
2018-08-16T02:03:46.661Z,16.10
2018-08-16T02:06:17.072Z,16.00
2018-08-16T02:08:47.374Z,15.90
2018-08-16T02:11:17.753Z,15.90
2018-08-16T02:13:48.078Z,15.90
2018-08-16T02:16:18.628Z,15.80
2018-08-16T02:18:48.930Z,15.80
2018-08-16T02:21:19.689Z,15.80
2018-08-16T02:23:49.936Z,15.70
2018-08-16T02:26:20.440Z,15.70
2018-08-16T02:28:51.045Z,15.60
2018-08-16T02:31:21.586Z,15.60
2018-08-16T02:33:52.102Z,15.60
2018-08-16T02:36:22.486Z,15.60
2018-08-16T02:38:52.868Z,15.60
2018-08-16T02:41:23.265Z,15.60
2018-08-16T02:43:53.561Z,15.50
2018-08-16T02:46:23.892Z,15.50
2018-08-16T02:48:54.208Z,15.50
2018-08-16T02:51:24.538Z,15.40
2018-08-16T02:53:54.828Z,15.40
2018-08-16T02:56:25.248Z,15.30
2018-08-16T02:58:55.514Z,15.30
2018-08-16T03:01:25.822Z,15.30
2018-08-16T03:03:56.141Z,15.20
2018-08-16T03:06:26.448Z,15.20
2018-08-16T03:08:56.734Z,15.20
2018-08-16T03:11:27.123Z,15.10
2018-08-16T03:13:57.390Z,14.90
2018-08-16T03:16:28.050Z,14.90
2018-08-16T03:18:58.398Z,14.90
2018-08-16T03:21:28.673Z,14.90
2018-08-16T03:23:58.972Z,14.80
2018-08-16T03:26:29.419Z,14.80
2018-08-16T03:28:59.720Z,14.80
2018-08-16T03:31:30.245Z,14.80
2018-08-16T03:34:00.577Z,14.80
2018-08-16T03:36:30.841Z,14.70
2018-08-16T03:39:01.158Z,14.70
2018-08-16T03:41:31.440Z,14.10
2018-08-16T03:44:01.706Z,14.80
2018-08-16T03:46:32.102Z,14.80
2018-08-16T03:49:02.391Z,14.80
2018-08-16T03:51:32.654Z,14.80
2018-08-16T03:54:03.001Z,14.70
2018-08-16T03:56:33.338Z,14.70
2018-08-16T03:59:03.762Z,14.70
2018-08-16T04:01:34.200Z,14.60
2018-08-16T04:04:04.533Z,14.70
2018-08-16T04:06:34.940Z,14.70
2018-08-16T04:09:06.796Z,14.70
2018-08-16T04:11:37.456Z,14.70
2018-08-16T04:14:07.800Z,14.70
2018-08-16T04:16:38.429Z,14.70
2018-08-16T04:19:08.790Z,14.70
2018-08-16T04:21:39.105Z,14.60
2018-08-16T04:24:10.477Z,14.70
2018-08-16T04:26:40.826Z,14.70
2018-08-16T04:29:11.242Z,14.70
2018-08-16T04:31:42.421Z,14.70
2018-08-16T04:34:12.720Z,14.70
2018-08-16T04:36:43.129Z,14.80
2018-08-16T04:39:13.461Z,14.80
2018-08-16T04:41:43.924Z,14.80
2018-08-16T04:44:14.825Z,14.90
2018-08-16T04:46:45.200Z,15.00
2018-08-16T04:49:15.493Z,15.00
2018-08-16T04:51:45.814Z,15.00
2018-08-16T04:54:16.128Z,15.00
2018-08-16T04:56:46.562Z,15.10
2018-08-16T04:59:16.850Z,15.10
2018-08-16T05:01:47.310Z,15.10
2018-08-16T05:04:17.606Z,15.20
2018-08-16T05:06:47.951Z,15.30
2018-08-16T05:09:18.277Z,15.40
2018-08-16T05:11:50.738Z,15.40
2018-08-16T05:14:21.098Z,15.50
2018-08-16T05:16:51.584Z,15.60
2018-08-16T05:19:21.972Z,15.80
2018-08-16T05:21:52.331Z,15.90
2018-08-16T05:24:22.671Z,16.10
2018-08-16T05:26:53.079Z,16.10
2018-08-16T05:29:23.390Z,16.20
2018-08-16T05:31:53.731Z,16.20
2018-08-16T05:34:24.115Z,16.30
2018-08-16T05:36:54.557Z,16.40
2018-08-16T05:39:24.961Z,16.40
2018-08-16T05:41:55.306Z,16.40
2018-08-16T05:44:25.665Z,16.50
2018-08-16T05:46:56.012Z,16.50
2018-08-16T05:49:26.410Z,16.60
2018-08-16T05:51:56.779Z,16.70
2018-08-16T05:54:27.080Z,16.70
2018-08-16T05:56:57.414Z,16.80
2018-08-16T05:59:27.885Z,16.90
2018-08-16T06:01:59.075Z,17.00
2018-08-16T06:04:29.442Z,17.10
2018-08-16T06:07:00.506Z,17.20
2018-08-16T06:09:30.809Z,17.30
2018-08-16T06:12:01.205Z,17.40
2018-08-16T06:14:31.528Z,17.50
2018-08-16T06:17:01.967Z,17.60
2018-08-16T06:19:32.353Z,17.70
2018-08-16T06:22:02.836Z,17.80
2018-08-16T06:24:33.128Z,17.90
2018-08-16T06:27:03.536Z,18.00
2018-08-16T06:29:33.865Z,18.10
2018-08-16T06:32:04.201Z,18.20
2018-08-16T06:34:34.568Z,18.30
2018-08-16T06:37:05.213Z,18.40
2018-08-16T06:39:35.611Z,18.50
2018-08-16T06:42:06.104Z,18.60
2018-08-16T06:44:36.475Z,18.60
2018-08-16T06:47:06.824Z,18.70
2018-08-16T06:49:37.179Z,18.80
2018-08-16T06:52:07.492Z,19.00
2018-08-16T06:54:37.880Z,19.00
2018-08-16T06:57:08.297Z,19.20
2018-08-16T06:59:38.703Z,19.20
2018-08-16T07:02:09.121Z,19.30
2018-08-16T07:04:39.437Z,19.40
2018-08-16T07:07:10.081Z,19.50
2018-08-16T07:09:40.397Z,19.60
2018-08-16T07:12:10.882Z,19.70
2018-08-16T07:14:41.197Z,19.80
2018-08-16T07:17:12.011Z,19.90
2018-08-16T07:19:42.303Z,20.00
2018-08-16T07:22:12.752Z,20.10
2018-08-16T07:24:43.055Z,20.20
2018-08-16T07:27:13.383Z,20.30
2018-08-16T07:29:43.716Z,20.40
2018-08-16T07:32:14.053Z,20.50
2018-08-16T07:34:44.361Z,20.70
2018-08-16T07:37:14.833Z,20.80
2018-08-16T07:39:45.140Z,20.90
2018-08-16T07:42:15.514Z,21.00
2018-08-16T07:44:45.820Z,21.00
2018-08-16T07:47:16.162Z,21.20
2018-08-16T07:49:46.564Z,21.30
2018-08-16T07:52:16.889Z,21.30
2018-08-16T07:54:47.209Z,21.40
2018-08-16T07:57:17.780Z,21.50
2018-08-16T07:59:48.166Z,21.60
2018-08-16T08:02:18.468Z,21.60
2018-08-16T08:04:48.854Z,21.70
2018-08-16T08:07:19.130Z,21.80
2018-08-16T08:09:49.462Z,21.90
2018-08-16T08:12:19.710Z,22.00
2018-08-16T08:14:50.403Z,22.10
2018-08-16T08:17:20.676Z,22.20
2018-08-16T08:19:51.417Z,22.20
2018-08-16T08:22:21.705Z,22.30
2018-08-16T08:24:52.055Z,22.50
2018-08-16T08:27:22.381Z,22.60
2018-08-16T08:29:52.650Z,22.70
2018-08-16T08:32:22.983Z,22.80
2018-08-16T08:34:53.592Z,22.90
2018-08-16T08:37:40.802Z,23.00
2018-08-16T08:40:11.224Z,23.10
2018-08-16T08:42:41.549Z,23.20
2018-08-16T08:45:11.888Z,23.40
2018-08-16T08:47:48.064Z,23.50
2018-08-16T08:50:18.411Z,23.50
2018-08-16T08:52:49.182Z,23.60
2018-08-16T08:55:36.421Z,23.60
2018-08-16T08:58:23.764Z,23.70
2018-08-16T09:00:54.202Z,23.70
2018-08-16T09:03:24.564Z,23.80
2018-08-16T09:05:54.891Z,23.90
2018-08-16T09:08:25.250Z,23.90
2018-08-16T09:11:13.568Z,23.90
2018-08-16T09:14:03.149Z,24.00
2018-08-16T09:16:35.075Z,24.10
2018-08-16T09:19:06.131Z,24.20
2018-08-16T09:21:37.667Z,24.40
2018-08-16T09:24:08.119Z,24.50
2018-08-16T09:26:43.049Z,24.60
2018-08-16T09:29:49.960Z,24.60
2018-08-16T09:32:37.328Z,24.70
2018-08-16T09:35:07.640Z,24.70
2018-08-16T09:37:37.990Z,24.90
2018-08-16T09:40:08.348Z,25.00
2018-08-16T09:42:39.185Z,24.90
2018-08-16T09:45:26.075Z,25.00
2018-08-16T09:48:13.186Z,25.10
2018-08-16T09:50:43.943Z,25.20
2018-08-16T09:53:14.303Z,25.40
2018-08-16T09:55:44.732Z,25.50
2018-08-16T09:58:15.812Z,25.80
2018-08-16T10:00:51.278Z,25.90
2018-08-16T10:03:21.593Z,26.10
2018-08-16T10:05:51.922Z,26.40
2018-08-16T10:08:22.242Z,26.90
2018-08-16T10:10:53.168Z,27.20
2018-08-16T10:13:23.487Z,27.30
2018-08-16T10:15:54.594Z,27.50
2018-08-16T10:18:24.852Z,27.80
2018-08-16T10:20:55.235Z,28.10
2018-08-16T10:23:25.487Z,28.30
2018-08-16T10:25:55.905Z,28.50
2018-08-16T10:28:26.193Z,28.70
2018-08-16T10:30:56.520Z,29.10
2018-08-16T10:33:26.836Z,29.40
2018-08-16T10:35:57.222Z,29.50
2018-08-16T10:38:27.982Z,29.70
2018-08-16T10:40:58.360Z,30.50
2018-08-16T10:43:28.794Z,31.10
2018-08-16T10:46:00.792Z,31.20
2018-08-16T10:48:31.370Z,31.30
2018-08-16T10:51:02.454Z,31.40
2018-08-16T10:53:32.944Z,31.40
2018-08-16T10:56:03.307Z,31.60
2018-08-16T10:58:33.646Z,31.90
2018-08-16T11:01:04.097Z,32.10
2018-08-16T11:03:34.469Z,32.50
2018-08-16T11:06:04.802Z,32.70
2018-08-16T11:08:35.222Z,33.10
2018-08-16T11:11:05.793Z,33.30
2018-08-16T11:13:36.121Z,33.50
2018-08-16T11:16:06.520Z,33.30
2018-08-16T11:18:36.908Z,32.80
2018-08-16T11:21:07.341Z,32.30
2018-08-16T11:23:38.702Z,32.00
2018-08-16T11:26:10.649Z,32.30
2018-08-16T11:28:42.362Z,32.60
2018-08-16T11:31:14.247Z,32.30
2018-08-16T11:33:45.913Z,32.10
2018-08-16T11:36:17.735Z,32.00
2018-08-16T11:38:49.225Z,32.00
2018-08-16T11:41:20.620Z,31.70
2018-08-16T11:43:52.090Z,31.70
2018-08-16T11:46:24.259Z,32.50
2018-08-16T11:48:56.723Z,33.20
2018-08-16T11:51:32.590Z,34.10
2018-08-16T11:54:04.307Z,34.60
2018-08-16T11:56:35.303Z,35.10
2018-08-16T11:59:07.468Z,35.80
2018-08-16T12:01:40.558Z,36.40
2018-08-16T12:04:15.538Z,37.00
2018-08-16T12:06:52.090Z,37.50
2018-08-16T12:09:24.228Z,37.60
2018-08-16T12:11:56.590Z,37.50
2018-08-16T12:14:28.652Z,37.60
2018-08-16T12:17:00.022Z,37.80
2018-08-16T12:19:32.660Z,38.20
2018-08-16T12:22:03.226Z,38.20
2018-08-16T12:24:33.944Z,37.40
2018-08-16T12:27:05.724Z,36.90
2018-08-16T12:29:36.100Z,37.00
2018-08-16T12:32:06.628Z,37.60
2018-08-16T12:34:37.010Z,38.00
2018-08-16T12:37:07.773Z,37.90
2018-08-16T12:39:38.157Z,38.20
2018-08-16T12:42:08.573Z,38.60
2018-08-16T12:44:38.876Z,39.30
2018-08-16T12:47:09.298Z,40.10
2018-08-16T12:49:39.676Z,40.30
2018-08-16T12:52:10.105Z,40.80
2018-08-16T12:54:40.429Z,41.00
2018-08-16T12:57:10.773Z,41.20
2018-08-16T12:59:41.211Z,40.60
2018-08-16T13:02:11.902Z,40.10
2018-08-16T13:04:42.325Z,39.90
2018-08-16T13:07:12.669Z,39.50
2018-08-16T13:09:43.046Z,39.00
2018-08-16T13:12:13.731Z,38.20
2018-08-16T13:14:44.078Z,37.50
2018-08-16T13:17:14.797Z,37.10
2018-08-16T13:19:45.133Z,37.00
2018-08-16T13:22:15.837Z,36.70
2018-08-16T13:24:46.227Z,36.40
2018-08-16T13:27:17.551Z,36.00
2018-08-16T13:29:47.930Z,35.70
2018-08-16T13:32:19.079Z,35.30
2018-08-16T13:34:49.451Z,34.90
2018-08-16T13:37:19.765Z,34.70
2018-08-16T13:39:50.133Z,34.40
2018-08-16T13:42:20.686Z,34.30
2018-08-16T13:44:50.967Z,34.20
2018-08-16T13:47:21.923Z,34.00
2018-08-16T13:49:52.291Z,33.50
2018-08-16T13:52:22.690Z,33.20
2018-08-16T13:54:53.373Z,32.90
2018-08-16T13:57:23.756Z,32.80
2018-08-16T13:59:54.122Z,32.70
2018-08-16T14:02:24.535Z,32.50
2018-08-16T14:04:54.901Z,32.60
2018-08-16T14:07:26.057Z,32.70
2018-08-16T14:09:56.490Z,32.90
2018-08-16T14:12:26.936Z,33.20
2018-08-16T14:14:57.233Z,33.10
2018-08-16T14:17:27.604Z,33.00
2018-08-16T14:19:58.657Z,32.80
2018-08-16T14:22:29.027Z,32.70
2018-08-16T14:24:59.418Z,32.40
2018-08-16T14:27:29.774Z,32.10
2018-08-16T14:30:00.427Z,32.00
2018-08-16T14:32:30.862Z,31.90
2018-08-16T14:35:01.178Z,31.90
2018-08-16T14:37:31.574Z,32.00
2018-08-16T14:40:01.979Z,32.00
2018-08-16T14:42:32.361Z,32.00
2018-08-16T14:45:02.741Z,32.10
2018-08-16T14:47:33.171Z,32.20
2018-08-16T14:50:05.669Z,32.20
2018-08-16T14:52:36.238Z,32.30
2018-08-16T14:55:06.776Z,32.30
2018-08-16T14:57:37.080Z,32.20
2018-08-16T15:00:09.476Z,32.40
2018-08-16T15:02:39.917Z,32.50
2018-08-16T15:05:10.610Z,32.80
2018-08-16T15:07:41.108Z,33.00
2018-08-16T15:10:11.444Z,33.20
2018-08-16T15:12:41.764Z,33.50
2018-08-16T15:15:13.112Z,33.80
2018-08-16T15:17:43.481Z,34.20
2018-08-16T15:20:14.771Z,34.40
2018-08-16T15:22:45.331Z,34.40
2018-08-16T15:25:16.484Z,34.40
2018-08-16T15:27:46.985Z,34.70
2018-08-16T15:30:17.356Z,35.00
2018-08-16T15:32:47.716Z,35.10
2018-08-16T15:35:18.189Z,35.00
2018-08-16T15:37:48.597Z,35.30
2018-08-16T15:40:18.998Z,35.60
2018-08-16T15:42:49.373Z,35.70
2018-08-16T15:45:19.867Z,36.00
2018-08-16T15:47:50.189Z,35.80
2018-08-16T15:50:21.748Z,36.10
2018-08-16T15:52:52.347Z,36.20
2018-08-16T15:55:22.846Z,36.30
2018-08-16T15:57:53.245Z,36.50
2018-08-16T16:00:23.712Z,36.30
2018-08-16T16:02:54.721Z,36.20
2018-08-16T16:05:25.747Z,35.70
2018-08-16T16:07:56.349Z,35.20
2018-08-16T16:10:27.003Z,35.40
2018-08-16T16:12:57.459Z,35.50
2018-08-16T16:15:28.879Z,35.60
2018-08-16T16:17:59.276Z,35.40
2018-08-16T16:20:30.500Z,34.30
2018-08-16T16:23:00.895Z,33.40
2018-08-16T16:25:31.767Z,32.80
2018-08-16T16:28:02.929Z,32.60
2018-08-16T16:30:33.642Z,32.10
2018-08-16T16:33:03.982Z,31.70
2018-08-16T16:35:34.342Z,31.40
2018-08-16T16:38:05.679Z,31.00
2018-08-16T16:40:36.139Z,30.80
2018-08-16T16:43:06.622Z,30.90
2018-08-16T16:45:36.928Z,31.30
2018-08-16T16:48:07.556Z,31.40
2018-08-16T16:50:37.801Z,31.20
2018-08-16T16:53:08.973Z,30.90
2018-08-16T16:55:39.360Z,30.60
2018-08-16T16:58:09.814Z,30.40
2018-08-16T17:00:40.127Z,30.10
2018-08-16T17:03:10.467Z,29.90
2018-08-16T17:05:40.800Z,29.70
2018-08-16T17:08:11.142Z,29.40
2018-08-16T17:10:41.473Z,29.20
2018-08-16T17:13:11.979Z,29.00
2018-08-16T17:15:42.629Z,28.80
2018-08-16T17:18:12.963Z,28.60
2018-08-16T17:20:43.464Z,28.40
2018-08-16T17:23:14.025Z,28.20
2018-08-16T17:25:44.357Z,28.10
2018-08-16T17:28:14.668Z,27.90
2018-08-16T17:30:44.972Z,27.70
2018-08-16T17:33:15.263Z,27.50
2018-08-16T17:35:45.643Z,27.40
2018-08-16T17:38:15.924Z,27.20
2018-08-16T17:40:46.321Z,27.20
2018-08-16T17:43:16.704Z,27.00
2018-08-16T17:45:47.104Z,26.90
2018-08-16T17:48:17.566Z,26.80
2018-08-16T17:50:47.943Z,26.70
2018-08-16T17:53:18.338Z,26.60
2018-08-16T17:55:48.642Z,26.50
2018-08-16T17:58:19.017Z,26.40
2018-08-16T18:00:49.420Z,26.30
2018-08-16T18:03:19.816Z,26.20
2018-08-16T18:05:50.304Z,26.10
2018-08-16T18:08:20.611Z,26.00
2018-08-16T18:10:50.957Z,25.90
2018-08-16T18:13:21.317Z,25.80
2018-08-16T18:15:52.682Z,25.70
2018-08-16T18:18:23.071Z,25.70
2018-08-16T18:20:53.489Z,25.60
2018-08-16T18:23:23.907Z,25.50
2018-08-16T18:25:54.280Z,25.40
2018-08-16T18:28:24.961Z,25.40
2018-08-16T18:30:55.336Z,25.30
2018-08-16T18:33:25.711Z,25.30
2018-08-16T18:35:56.100Z,25.30
2018-08-16T18:38:26.823Z,25.30
2018-08-16T18:40:58.320Z,25.30
2018-08-16T18:43:28.668Z,25.30
2018-08-16T18:45:59.004Z,25.20
2018-08-16T18:48:29.360Z,25.10
2018-08-16T18:50:59.773Z,24.90
2018-08-16T18:53:30.336Z,24.90
2018-08-16T18:56:00.613Z,24.90
2018-08-16T18:58:30.885Z,24.90
2018-08-16T19:01:01.300Z,24.80
2018-08-16T19:03:31.733Z,24.80
2018-08-16T19:06:02.091Z,24.80
2018-08-16T19:08:32.504Z,24.80
2018-08-16T19:11:03.381Z,24.80
2018-08-16T19:13:33.678Z,24.80
2018-08-16T19:16:04.070Z,24.80
2018-08-16T19:18:34.905Z,24.80
2018-08-16T19:21:05.625Z,24.80
2018-08-16T19:23:35.980Z,24.70
2018-08-16T19:26:06.475Z,24.60
2018-08-16T19:28:36.838Z,24.50
2018-08-16T19:31:07.325Z,24.50
2018-08-16T19:33:37.744Z,24.40
2018-08-16T19:36:08.312Z,24.40
2018-08-16T19:38:38.549Z,24.20
2018-08-16T19:41:08.993Z,24.10
2018-08-16T19:43:39.418Z,24.00
2018-08-16T19:46:10.424Z,24.10
2018-08-16T19:48:40.837Z,24.00
2018-08-16T19:51:11.226Z,24.00
2018-08-16T19:53:41.633Z,24.00
2018-08-16T19:56:11.964Z,23.90
2018-08-16T19:58:42.892Z,23.90
2018-08-16T20:01:13.457Z,23.90
2018-08-16T20:03:43.891Z,23.80
2018-08-16T20:06:14.112Z,23.80
2018-08-16T20:08:44.541Z,23.80
2018-08-16T20:11:15.771Z,23.80
2018-08-16T20:13:46.257Z,23.80
2018-08-16T20:16:17.318Z,23.80
2018-08-16T20:18:47.725Z,23.80
2018-08-16T20:21:18.028Z,23.80
2018-08-16T20:23:48.420Z,23.70
2018-08-16T20:26:18.825Z,23.70
2018-08-16T20:28:49.360Z,23.60
2018-08-16T20:31:19.662Z,23.50
2018-08-16T20:33:50.104Z,23.50
2018-08-16T20:36:20.518Z,23.50
2018-08-16T20:38:50.880Z,23.50
2018-08-16T20:41:21.308Z,23.50
2018-08-16T20:43:51.641Z,23.40
2018-08-16T20:46:23.523Z,23.40
2018-08-16T20:48:53.954Z,23.30
2018-08-16T20:51:24.330Z,23.40
2018-08-16T20:53:54.925Z,23.30
2018-08-16T20:56:25.289Z,23.30
2018-08-16T20:58:55.946Z,23.20
2018-08-16T21:01:26.259Z,23.20
2018-08-16T21:03:56.705Z,23.20
2018-08-16T21:06:27.685Z,23.20
2018-08-16T21:08:58.002Z,23.20
2018-08-16T21:11:28.439Z,23.20
2018-08-16T21:13:58.705Z,23.10
2018-08-16T21:16:29.871Z,23.00
2018-08-16T21:19:00.303Z,23.00
2018-08-16T21:21:32.006Z,23.00
2018-08-16T21:24:02.390Z,22.90
2018-08-16T21:26:32.689Z,22.80
2018-08-16T21:29:03.134Z,22.80
2018-08-16T21:31:33.459Z,22.80
2018-08-16T21:34:03.762Z,22.80
2018-08-16T21:36:34.168Z,22.70
2018-08-16T21:39:05.543Z,22.70
2018-08-16T21:41:35.904Z,22.70
2018-08-16T21:44:06.350Z,22.60
2018-08-16T21:46:36.654Z,22.50
2018-08-16T21:49:07.072Z,22.40
2018-08-16T21:51:37.451Z,22.30
2018-08-16T21:54:08.181Z,22.20
2018-08-16T21:56:38.618Z,22.10
2018-08-16T21:59:09.218Z,22.00
2018-08-16T22:01:39.864Z,21.90
2018-08-16T22:04:10.275Z,21.90
2018-08-16T22:07:04.827Z,21.80
2018-08-16T22:09:36.113Z,21.70
2018-08-16T22:12:06.441Z,21.70
2018-08-16T22:14:36.820Z,21.60
2018-08-16T22:17:07.171Z,21.60
2018-08-16T22:19:37.489Z,21.60
2018-08-16T22:22:07.799Z,21.50
2018-08-16T22:24:38.254Z,21.50
2018-08-16T22:27:08.579Z,21.50
2018-08-16T22:29:38.864Z,21.40
2018-08-16T22:32:09.208Z,21.40
2018-08-16T22:34:39.506Z,21.30
2018-08-16T22:37:09.752Z,21.30
2018-08-16T22:39:40.144Z,21.20
2018-08-16T22:42:10.404Z,21.10
2018-08-16T22:44:40.823Z,21.10
2018-08-16T22:47:11.001Z,21.10
2018-08-16T22:49:41.328Z,21.20
2018-08-16T22:52:11.607Z,21.20
2018-08-16T22:54:41.896Z,21.20
2018-08-16T22:57:12.781Z,21.10
2018-08-16T22:59:43.380Z,21.10
2018-08-16T23:02:13.753Z,21.00
2018-08-16T23:04:44.064Z,21.00
2018-08-16T23:07:14.381Z,21.00
2018-08-16T23:09:44.655Z,21.00
2018-08-16T23:12:14.928Z,21.00
2018-08-16T23:14:45.220Z,20.90
2018-08-16T23:17:15.520Z,20.90
2018-08-16T23:19:45.830Z,20.90
2018-08-16T23:22:16.159Z,20.80
2018-08-16T23:24:46.619Z,20.80
2018-08-16T23:27:16.922Z,20.80
2018-08-16T23:29:47.213Z,20.70
2018-08-16T23:32:17.525Z,20.70
2018-08-16T23:34:47.791Z,20.60
2018-08-16T23:37:18.077Z,20.60
2018-08-16T23:39:48.433Z,20.60
2018-08-16T23:42:18.769Z,20.60
2018-08-16T23:44:49.450Z,20.60
2018-08-16T23:47:25.752Z,20.50
2018-08-16T23:49:56.132Z,20.60
2018-08-16T23:52:26.550Z,20.50
2018-08-16T23:54:57.267Z,20.60
2018-08-16T23:57:27.529Z,20.60
2018-08-16T23:59:57.957Z,20.60
